sensor_id;sensor_type;location;lat;lon;timestamp;P1;durP1;ratioP1;P2;durP2;ratioP2
71423;SDS011;59240;51.370;-0.486;2023-04-24T00:02:18;20.70;;;8.95;;
71423;SDS011;59240;51.370;-0.486;2023-04-24T00:04:45;20.70;;;9.33;;
71423;SDS011;59240;51.370;-0.486;2023-04-24T00:07:12;20.77;;;9.73;;
71423;SDS011;59240;51.370;-0.486;2023-04-24T00:09:39;19.02;;;8.25;;
71423;SDS011;59240;51.370;-0.486;2023-04-24T00:12:06;19.60;;;8.88;;
71423;SDS011;59240;51.370;-0.486;2023-04-24T00:14:33;20.70;;;8.45;;
71423;SDS011;59240;51.370;-0.486;2023-04-24T00:17:01;20.30;;;8.70;;
71423;SDS011;59240;51.370;-0.486;2023-04-24T00:19:28;21.75;;;9.40;;
71423;SDS011;59240;51.370;-0.486;2023-04-24T00:21:55;20.55;;;8.98;;
71423;SDS011;59240;51.370;-0.486;2023-04-24T00:24:22;19.10;;;8.60;;
71423;SDS011;59240;51.370;-0.486;2023-04-24T00:26:48;20.38;;;8.75;;
71423;SDS011;59240;51.370;-0.486;2023-04-24T00:29:15;20.17;;;9.37;;
71423;SDS011;59240;51.370;-0.486;2023-04-24T00:31:42;20.27;;;9.40;;
71423;SDS011;59240;51.370;-0.486;2023-04-24T00:34:09;22.42;;;8.95;;
71423;SDS011;59240;51.370;-0.486;2023-04-24T00:36:38;23.63;;;9.00;;
71423;SDS011;59240;51.370;-0.486;2023-04-24T00:39:04;21.90;;;8.63;;
71423;SDS011;59240;51.370;-0.486;2023-04-24T00:41:31;20.33;;;8.97;;
71423;SDS011;59240;51.370;-0.486;2023-04-24T00:43:58;21.63;;;8.82;;
71423;SDS011;59240;51.370;-0.486;2023-04-24T00:46:24;22.45;;;9.27;;
71423;SDS011;59240;51.370;-0.486;2023-04-24T00:48:52;19.70;;;8.82;;
71423;SDS011;59240;51.370;-0.486;2023-04-24T00:51:19;20.73;;;9.20;;
71423;SDS011;59240;51.370;-0.486;2023-04-24T00:53:47;21.37;;;9.90;;
71423;SDS011;59240;51.370;-0.486;2023-04-24T00:56:14;23.33;;;9.48;;
71423;SDS011;59240;51.370;-0.486;2023-04-24T00:58:41;25.95;;;9.70;;
71423;SDS011;59240;51.370;-0.486;2023-04-24T01:01:09;21.10;;;9.40;;
71423;SDS011;59240;51.370;-0.486;2023-04-24T01:03:37;20.38;;;8.70;;
71423;SDS011;59240;51.370;-0.486;2023-04-24T01:06:05;22.67;;;9.90;;
71423;SDS011;59240;51.370;-0.486;2023-04-24T01:08:31;21.70;;;9.75;;
71423;SDS011;59240;51.370;-0.486;2023-04-24T01:11:00;18.25;;;8.27;;
71423;SDS011;59240;51.370;-0.486;2023-04-24T01:13:30;21.65;;;8.95;;
71423;SDS011;59240;51.370;-0.486;2023-04-24T01:15:58;19.17;;;8.52;;
71423;SDS011;59240;51.370;-0.486;2023-04-24T01:18:25;20.03;;;9.33;;
71423;SDS011;59240;51.370;-0.486;2023-04-24T01:20:53;19.80;;;8.35;;
71423;SDS011;59240;51.370;-0.486;2023-04-24T01:23:23;23.02;;;9.23;;
71423;SDS011;59240;51.370;-0.486;2023-04-24T01:25:50;21.65;;;9.18;;
71423;SDS011;59240;51.370;-0.486;2023-04-24T01:28:17;19.48;;;8.38;;
71423;SDS011;59240;51.370;-0.486;2023-04-24T01:30:44;19.10;;;8.87;;
71423;SDS011;59240;51.370;-0.486;2023-04-24T01:33:11;21.10;;;9.23;;
71423;SDS011;59240;51.370;-0.486;2023-04-24T01:35:38;18.80;;;8.27;;
71423;SDS011;59240;51.370;-0.486;2023-04-24T01:38:05;21.70;;;9.63;;
71423;SDS011;59240;51.370;-0.486;2023-04-24T01:40:32;22.35;;;8.90;;
71423;SDS011;59240;51.370;-0.486;2023-04-24T01:42:59;21.00;;;8.87;;
71423;SDS011;59240;51.370;-0.486;2023-04-24T01:45:25;20.00;;;9.02;;
71423;SDS011;59240;51.370;-0.486;2023-04-24T01:47:52;21.30;;;9.18;;
71423;SDS011;59240;51.370;-0.486;2023-04-24T01:50:19;20.98;;;8.57;;
71423;SDS011;59240;51.370;-0.486;2023-04-24T01:52:46;21.70;;;8.95;;
71423;SDS011;59240;51.370;-0.486;2023-04-24T01:55:12;23.03;;;9.57;;
71423;SDS011;59240;51.370;-0.486;2023-04-24T01:57:39;21.55;;;8.80;;
71423;SDS011;59240;51.370;-0.486;2023-04-24T02:00:06;22.95;;;9.80;;
71423;SDS011;59240;51.370;-0.486;2023-04-24T02:02:33;17.85;;;7.22;;
71423;SDS011;59240;51.370;-0.486;2023-04-24T02:05:01;24.60;;;9.60;;
71423;SDS011;59240;51.370;-0.486;2023-04-24T02:07:29;21.80;;;8.83;;
71423;SDS011;59240;51.370;-0.486;2023-04-24T02:09:55;19.83;;;8.68;;
71423;SDS011;59240;51.370;-0.486;2023-04-24T02:12:22;21.85;;;8.75;;
71423;SDS011;59240;51.370;-0.486;2023-04-24T02:14:49;20.73;;;8.57;;
71423;SDS011;59240;51.370;-0.486;2023-04-24T02:17:15;20.98;;;9.02;;
71423;SDS011;59240;51.370;-0.486;2023-04-24T02:19:43;22.33;;;9.17;;
71423;SDS011;59240;51.370;-0.486;2023-04-24T02:22:10;25.33;;;9.45;;
71423;SDS011;59240;51.370;-0.486;2023-04-24T02:24:37;20.73;;;8.27;;
71423;SDS011;59240;51.370;-0.486;2023-04-24T02:27:05;22.55;;;8.85;;
71423;SDS011;59240;51.370;-0.486;2023-04-24T02:29:32;21.38;;;8.45;;
71423;SDS011;59240;51.370;-0.486;2023-04-24T02:31:58;21.53;;;8.90;;
71423;SDS011;59240;51.370;-0.486;2023-04-24T02:34:25;19.40;;;8.77;;
71423;SDS011;59240;51.370;-0.486;2023-04-24T02:36:52;19.35;;;8.20;;
71423;SDS011;59240;51.370;-0.486;2023-04-24T02:39:20;22.15;;;8.90;;
71423;SDS011;59240;51.370;-0.486;2023-04-24T02:41:47;21.05;;;8.60;;
71423;SDS011;59240;51.370;-0.486;2023-04-24T02:44:13;20.80;;;9.30;;
71423;SDS011;59240;51.370;-0.486;2023-04-24T02:46:40;19.10;;;8.70;;
71423;SDS011;59240;51.370;-0.486;2023-04-24T02:49:08;24.13;;;9.38;;
71423;SDS011;59240;51.370;-0.486;2023-04-24T02:51:34;23.65;;;9.77;;
71423;SDS011;59240;51.370;-0.486;2023-04-24T02:54:01;18.77;;;7.97;;
71423;SDS011;59240;51.370;-0.486;2023-04-24T02:56:28;23.53;;;9.70;;
71423;SDS011;59240;51.370;-0.486;2023-04-24T02:58:54;23.35;;;9.77;;
71423;SDS011;59240;51.370;-0.486;2023-04-24T03:01:21;18.85;;;7.88;;
71423;SDS011;59240;51.370;-0.486;2023-04-24T03:03:48;20.17;;;8.80;;
71423;SDS011;59240;51.370;-0.486;2023-04-24T03:06:16;21.77;;;9.00;;
71423;SDS011;59240;51.370;-0.486;2023-04-24T03:08:42;20.97;;;10.27;;
71423;SDS011;59240;51.370;-0.486;2023-04-24T03:11:09;20.60;;;8.13;;
71423;SDS011;59240;51.370;-0.486;2023-04-24T03:13:36;20.17;;;8.68;;
71423;SDS011;59240;51.370;-0.486;2023-04-24T03:16:02;22.83;;;9.23;;
71423;SDS011;59240;51.370;-0.486;2023-04-24T03:18:29;20.65;;;8.60;;
71423;SDS011;59240;51.370;-0.486;2023-04-24T03:20:56;18.37;;;8.27;;
71423;SDS011;59240;51.370;-0.486;2023-04-24T03:23:22;18.58;;;8.30;;
71423;SDS011;59240;51.370;-0.486;2023-04-24T03:25:49;23.80;;;9.27;;
71423;SDS011;59240;51.370;-0.486;2023-04-24T03:28:16;18.17;;;8.70;;
71423;SDS011;59240;51.370;-0.486;2023-04-24T03:30:42;18.58;;;7.55;;
71423;SDS011;59240;51.370;-0.486;2023-04-24T03:33:09;23.40;;;9.00;;
71423;SDS011;59240;51.370;-0.486;2023-04-24T03:35:36;20.48;;;8.80;;
71423;SDS011;59240;51.370;-0.486;2023-04-24T03:38:02;17.38;;;7.63;;
71423;SDS011;59240;51.370;-0.486;2023-04-24T03:40:30;21.17;;;8.90;;
71423;SDS011;59240;51.370;-0.486;2023-04-24T03:42:59;21.15;;;8.98;;
71423;SDS011;59240;51.370;-0.486;2023-04-24T03:45:26;19.50;;;8.10;;
71423;SDS011;59240;51.370;-0.486;2023-04-24T03:47:53;21.55;;;8.82;;
71423;SDS011;59240;51.370;-0.486;2023-04-24T03:50:20;20.60;;;8.77;;
71423;SDS011;59240;51.370;-0.486;2023-04-24T03:52:46;19.90;;;8.02;;
71423;SDS011;59240;51.370;-0.486;2023-04-24T03:55:13;18.52;;;7.95;;
71423;SDS011;59240;51.370;-0.486;2023-04-24T03:57:40;19.30;;;8.10;;
71423;SDS011;59240;51.370;-0.486;2023-04-24T04:00:07;21.65;;;8.40;;
71423;SDS011;59240;51.370;-0.486;2023-04-24T04:02:35;20.95;;;8.82;;
71423;SDS011;59240;51.370;-0.486;2023-04-24T04:05:02;17.75;;;8.02;;
71423;SDS011;59240;51.370;-0.486;2023-04-24T04:07:29;19.13;;;7.80;;
71423;SDS011;59240;51.370;-0.486;2023-04-24T04:09:56;19.00;;;8.13;;
71423;SDS011;59240;51.370;-0.486;2023-04-24T04:12:22;23.10;;;8.32;;
71423;SDS011;59240;51.370;-0.486;2023-04-24T04:14:49;18.17;;;7.95;;
71423;SDS011;59240;51.370;-0.486;2023-04-24T04:17:16;18.35;;;8.02;;
71423;SDS011;59240;51.370;-0.486;2023-04-24T04:19:42;19.25;;;8.07;;
71423;SDS011;59240;51.370;-0.486;2023-04-24T04:22:10;20.43;;;8.00;;
71423;SDS011;59240;51.370;-0.486;2023-04-24T04:24:37;18.85;;;8.40;;
71423;SDS011;59240;51.370;-0.486;2023-04-24T04:27:04;20.63;;;7.72;;
71423;SDS011;59240;51.370;-0.486;2023-04-24T04:29:31;21.10;;;7.72;;
71423;SDS011;59240;51.370;-0.486;2023-04-24T04:31:58;16.23;;;7.15;;
71423;SDS011;59240;51.370;-0.486;2023-04-24T04:34:25;17.60;;;7.93;;
71423;SDS011;59240;51.370;-0.486;2023-04-24T04:36:52;20.08;;;8.23;;
71423;SDS011;59240;51.370;-0.486;2023-04-24T04:39:19;16.63;;;7.70;;
71423;SDS011;59240;51.370;-0.486;2023-04-24T04:41:46;18.35;;;8.10;;
71423;SDS011;59240;51.370;-0.486;2023-04-24T04:44:15;19.80;;;7.72;;
71423;SDS011;59240;51.370;-0.486;2023-04-24T04:46:42;16.47;;;7.67;;
71423;SDS011;59240;51.370;-0.486;2023-04-24T04:49:09;19.63;;;7.53;;
71423;SDS011;59240;51.370;-0.486;2023-04-24T04:51:37;19.95;;;8.25;;
71423;SDS011;59240;51.370;-0.486;2023-04-24T04:54:03;19.33;;;8.52;;
71423;SDS011;59240;51.370;-0.486;2023-04-24T04:56:30;18.17;;;7.88;;
71423;SDS011;59240;51.370;-0.486;2023-04-24T04:58:57;19.77;;;8.33;;
71423;SDS011;59240;51.370;-0.486;2023-04-24T05:01:25;19.90;;;8.35;;
71423;SDS011;59240;51.370;-0.486;2023-04-24T05:03:53;18.50;;;7.65;;
71423;SDS011;59240;51.370;-0.486;2023-04-24T05:06:20;19.67;;;8.48;;
71423;SDS011;59240;51.370;-0.486;2023-04-24T05:08:49;16.65;;;7.63;;
71423;SDS011;59240;51.370;-0.486;2023-04-24T05:11:19;21.87;;;7.63;;
71423;SDS011;59240;51.370;-0.486;2023-04-24T05:13:46;18.25;;;7.38;;
71423;SDS011;59240;51.370;-0.486;2023-04-24T05:16:13;18.58;;;7.45;;
71423;SDS011;59240;51.370;-0.486;2023-04-24T05:18:39;19.27;;;8.18;;
71423;SDS011;59240;51.370;-0.486;2023-04-24T05:21:06;17.48;;;7.38;;
71423;SDS011;59240;51.370;-0.486;2023-04-24T05:23:32;16.37;;;8.00;;
71423;SDS011;59240;51.370;-0.486;2023-04-24T05:26:07;16.20;;;7.57;;
71423;SDS011;59240;51.370;-0.486;2023-04-24T05:28:34;20.48;;;8.18;;
71423;SDS011;59240;51.370;-0.486;2023-04-24T05:31:04;16.98;;;7.53;;
71423;SDS011;59240;51.370;-0.486;2023-04-24T05:33:31;18.65;;;7.38;;
71423;SDS011;59240;51.370;-0.486;2023-04-24T05:36:00;19.00;;;8.03;;
71423;SDS011;59240;51.370;-0.486;2023-04-24T05:38:27;17.85;;;7.15;;
71423;SDS011;59240;51.370;-0.486;2023-04-24T05:40:54;19.30;;;7.80;;
71423;SDS011;59240;51.370;-0.486;2023-04-24T05:43:20;17.05;;;7.82;;
71423;SDS011;59240;51.370;-0.486;2023-04-24T05:45:47;17.80;;;8.43;;
71423;SDS011;59240;51.370;-0.486;2023-04-24T05:48:14;19.10;;;8.00;;
71423;SDS011;59240;51.370;-0.486;2023-04-24T05:50:41;18.27;;;7.75;;
71423;SDS011;59240;51.370;-0.486;2023-04-24T05:53:08;20.17;;;8.27;;
71423;SDS011;59240;51.370;-0.486;2023-04-24T05:55:36;15.13;;;7.35;;
71423;SDS011;59240;51.370;-0.486;2023-04-24T05:58:03;17.63;;;7.80;;
71423;SDS011;59240;51.370;-0.486;2023-04-24T06:00:30;18.57;;;7.80;;
71423;SDS011;59240;51.370;-0.486;2023-04-24T06:02:59;17.80;;;7.63;;
71423;SDS011;59240;51.370;-0.486;2023-04-24T06:05:27;16.98;;;7.40;;
71423;SDS011;59240;51.370;-0.486;2023-04-24T06:07:54;19.30;;;8.10;;
71423;SDS011;59240;51.370;-0.486;2023-04-24T06:10:32;17.42;;;7.47;;
71423;SDS011;59240;51.370;-0.486;2023-04-24T06:12:59;17.00;;;8.07;;
71423;SDS011;59240;51.370;-0.486;2023-04-24T06:15:29;18.48;;;8.48;;
71423;SDS011;59240;51.370;-0.486;2023-04-24T06:17:59;18.50;;;7.20;;
71423;SDS011;59240;51.370;-0.486;2023-04-24T06:20:26;19.48;;;7.85;;
71423;SDS011;59240;51.370;-0.486;2023-04-24T06:22:53;18.38;;;8.43;;
71423;SDS011;59240;51.370;-0.486;2023-04-24T06:25:25;18.57;;;8.20;;
71423;SDS011;59240;51.370;-0.486;2023-04-24T06:27:54;18.58;;;8.35;;
71423;SDS011;59240;51.370;-0.486;2023-04-24T06:30:22;17.10;;;8.60;;
71423;SDS011;59240;51.370;-0.486;2023-04-24T06:32:52;16.20;;;7.75;;
71423;SDS011;59240;51.370;-0.486;2023-04-24T06:35:18;20.67;;;8.55;;
71423;SDS011;59240;51.370;-0.486;2023-04-24T06:37:50;17.43;;;7.37;;
71423;SDS011;59240;51.370;-0.486;2023-04-24T06:40:17;15.90;;;6.70;;
71423;SDS011;59240;51.370;-0.486;2023-04-24T06:42:48;17.45;;;6.85;;
71423;SDS011;59240;51.370;-0.486;2023-04-24T06:45:15;13.55;;;6.13;;
71423;SDS011;59240;51.370;-0.486;2023-04-24T06:47:42;18.98;;;7.53;;
71423;SDS011;59240;51.370;-0.486;2023-04-24T06:50:18;17.30;;;7.40;;
71423;SDS011;59240;51.370;-0.486;2023-04-24T06:52:44;18.85;;;7.07;;
71423;SDS011;59240;51.370;-0.486;2023-04-24T06:55:12;17.73;;;7.13;;
71423;SDS011;59240;51.370;-0.486;2023-04-24T06:57:41;15.43;;;6.93;;
71423;SDS011;59240;51.370;-0.486;2023-04-24T07:00:08;16.33;;;6.00;;
71423;SDS011;59240;51.370;-0.486;2023-04-24T07:02:38;17.40;;;7.43;;
71423;SDS011;59240;51.370;-0.486;2023-04-24T07:05:05;15.48;;;6.40;;
71423;SDS011;59240;51.370;-0.486;2023-04-24T07:07:31;17.75;;;5.80;;
71423;SDS011;59240;51.370;-0.486;2023-04-24T07:09:58;18.95;;;6.10;;
71423;SDS011;59240;51.370;-0.486;2023-04-24T07:12:25;16.85;;;6.13;;
71423;SDS011;59240;51.370;-0.486;2023-04-24T07:14:52;14.77;;;5.83;;
71423;SDS011;59240;51.370;-0.486;2023-04-24T07:17:22;16.80;;;6.43;;
71423;SDS011;59240;51.370;-0.486;2023-04-24T07:19:49;13.25;;;5.10;;
71423;SDS011;59240;51.370;-0.486;2023-04-24T07:22:17;11.38;;;3.97;;
71423;SDS011;59240;51.370;-0.486;2023-04-24T07:24:47;14.90;;;4.18;;
71423;SDS011;59240;51.370;-0.486;2023-04-24T07:27:14;10.33;;;3.43;;
71423;SDS011;59240;51.370;-0.486;2023-04-24T07:29:45;10.88;;;2.97;;
71423;SDS011;59240;51.370;-0.486;2023-04-24T07:32:14;14.13;;;3.53;;
71423;SDS011;59240;51.370;-0.486;2023-04-24T07:34:41;14.63;;;3.88;;
71423;SDS011;59240;51.370;-0.486;2023-04-24T07:37:08;13.98;;;3.30;;
71423;SDS011;59240;51.370;-0.486;2023-04-24T07:39:37;12.73;;;3.90;;
71423;SDS011;59240;51.370;-0.486;2023-04-24T07:42:13;10.65;;;3.20;;
71423;SDS011;59240;51.370;-0.486;2023-04-24T07:44:41;15.05;;;3.00;;
71423;SDS011;59240;51.370;-0.486;2023-04-24T07:47:10;12.65;;;3.55;;
71423;SDS011;59240;51.370;-0.486;2023-04-24T07:49:37;10.57;;;3.30;;
71423;SDS011;59240;51.370;-0.486;2023-04-24T07:52:04;9.50;;;2.10;;
71423;SDS011;59240;51.370;-0.486;2023-04-24T07:54:31;9.25;;;1.95;;
71423;SDS011;59240;51.370;-0.486;2023-04-24T07:56:57;9.57;;;2.22;;
71423;SDS011;59240;51.370;-0.486;2023-04-24T07:59:24;10.65;;;2.42;;
71423;SDS011;59240;51.370;-0.486;2023-04-24T08:01:51;11.05;;;2.33;;
71423;SDS011;59240;51.370;-0.486;2023-04-24T08:04:20;9.80;;;2.10;;
71423;SDS011;59240;51.370;-0.486;2023-04-24T08:06:48;6.53;;;1.70;;
71423;SDS011;59240;51.370;-0.486;2023-04-24T08:09:17;6.85;;;1.60;;
71423;SDS011;59240;51.370;-0.486;2023-04-24T08:11:43;6.70;;;2.10;;
71423;SDS011;59240;51.370;-0.486;2023-04-24T08:14:13;14.85;;;2.38;;
71423;SDS011;59240;51.370;-0.486;2023-04-24T08:16:42;9.37;;;2.07;;
71423;SDS011;59240;51.370;-0.486;2023-04-24T08:19:14;8.65;;;1.92;;
71423;SDS011;59240;51.370;-0.486;2023-04-24T08:21:40;10.77;;;1.90;;
71423;SDS011;59240;51.370;-0.486;2023-04-24T08:24:07;10.93;;;1.88;;
71423;SDS011;59240;51.370;-0.486;2023-04-24T08:26:34;10.35;;;1.85;;
71423;SDS011;59240;51.370;-0.486;2023-04-24T08:29:01;8.73;;;1.60;;
71423;SDS011;59240;51.370;-0.486;2023-04-24T08:31:28;9.90;;;1.73;;
71423;SDS011;59240;51.370;-0.486;2023-04-24T08:33:55;6.30;;;1.40;;
71423;SDS011;59240;51.370;-0.486;2023-04-24T08:36:21;6.60;;;1.38;;
71423;SDS011;59240;51.370;-0.486;2023-04-24T08:38:58;8.98;;;1.65;;
71423;SDS011;59240;51.370;-0.486;2023-04-24T08:41:24;8.00;;;1.47;;
71423;SDS011;59240;51.370;-0.486;2023-04-24T08:43:53;8.35;;;1.60;;
71423;SDS011;59240;51.370;-0.486;2023-04-24T08:46:50;8.43;;;2.03;;
71423;SDS011;59240;51.370;-0.486;2023-04-24T08:49:18;9.80;;;1.42;;
71423;SDS011;59240;51.370;-0.486;2023-04-24T08:51:48;6.82;;;1.67;;
71423;SDS011;59240;51.370;-0.486;2023-04-24T08:54:17;8.27;;;1.70;;
71423;SDS011;59240;51.370;-0.486;2023-04-24T08:56:45;8.25;;;2.10;;
71423;SDS011;59240;51.370;-0.486;2023-04-24T08:59:15;8.30;;;1.77;;
71423;SDS011;59240;51.370;-0.486;2023-04-24T09:01:42;6.68;;;1.55;;
71423;SDS011;59240;51.370;-0.486;2023-04-24T09:04:11;8.57;;;1.60;;
71423;SDS011;59240;51.370;-0.486;2023-04-24T09:06:42;8.30;;;1.50;;
71423;SDS011;59240;51.370;-0.486;2023-04-24T09:09:10;7.03;;;1.65;;
71423;SDS011;59240;51.370;-0.486;2023-04-24T09:11:38;8.65;;;1.77;;
71423;SDS011;59240;51.370;-0.486;2023-04-24T09:14:05;9.85;;;2.08;;
71423;SDS011;59240;51.370;-0.486;2023-04-24T09:16:34;9.05;;;2.00;;
71423;SDS011;59240;51.370;-0.486;2023-04-24T09:19:04;7.47;;;1.57;;
71423;SDS011;59240;51.370;-0.486;2023-04-24T09:21:33;7.03;;;1.83;;
71423;SDS011;59240;51.370;-0.486;2023-04-24T09:24:03;8.88;;;2.00;;
71423;SDS011;59240;51.370;-0.486;2023-04-24T09:26:32;8.15;;;2.00;;
71423;SDS011;59240;51.370;-0.486;2023-04-24T09:29:00;7.35;;;2.10;;
71423;SDS011;59240;51.370;-0.486;2023-04-24T09:31:29;8.13;;;2.17;;
71423;SDS011;59240;51.370;-0.486;2023-04-24T09:33:57;10.02;;;2.67;;
71423;SDS011;59240;51.370;-0.486;2023-04-24T09:36:36;8.50;;;2.13;;
71423;SDS011;59240;51.370;-0.486;2023-04-24T09:39:10;8.90;;;2.05;;
71423;SDS011;59240;51.370;-0.486;2023-04-24T09:41:48;8.93;;;2.45;;
71423;SDS011;59240;51.370;-0.486;2023-04-24T09:44:18;9.10;;;2.17;;
71423;SDS011;59240;51.370;-0.486;2023-04-24T09:46:49;11.57;;;2.80;;
71423;SDS011;59240;51.370;-0.486;2023-04-24T09:49:29;10.85;;;2.53;;
71423;SDS011;59240;51.370;-0.486;2023-04-24T09:52:07;8.35;;;2.80;;
71423;SDS011;59240;51.370;-0.486;2023-04-24T09:54:35;8.00;;;2.47;;
71423;SDS011;59240;51.370;-0.486;2023-04-24T09:57:07;7.03;;;2.17;;
71423;SDS011;59240;51.370;-0.486;2023-04-24T09:59:45;10.20;;;2.47;;
71423;SDS011;59240;51.370;-0.486;2023-04-24T10:02:19;7.28;;;2.08;;
71423;SDS011;59240;51.370;-0.486;2023-04-24T10:04:56;6.00;;;2.33;;
71423;SDS011;59240;51.370;-0.486;2023-04-24T10:07:37;9.90;;;2.47;;
71423;SDS011;59240;51.370;-0.486;2023-04-24T10:10:04;7.70;;;2.13;;
71423;SDS011;59240;51.370;-0.486;2023-04-24T10:12:33;9.75;;;2.67;;
71423;SDS011;59240;51.370;-0.486;2023-04-24T10:15:01;8.88;;;2.30;;
71423;SDS011;59240;51.370;-0.486;2023-04-24T10:17:31;9.18;;;2.88;;
71423;SDS011;59240;51.370;-0.486;2023-04-24T10:19:59;9.55;;;2.80;;
71423;SDS011;59240;51.370;-0.486;2023-04-24T10:22:27;8.23;;;2.90;;
71423;SDS011;59240;51.370;-0.486;2023-04-24T10:24:56;7.85;;;2.78;;
71423;SDS011;59240;51.370;-0.486;2023-04-24T10:27:23;9.50;;;2.95;;
71423;SDS011;59240;51.370;-0.486;2023-04-24T10:29:52;8.65;;;2.58;;
71423;SDS011;59240;51.370;-0.486;2023-04-24T10:32:19;8.63;;;2.67;;
71423;SDS011;59240;51.370;-0.486;2023-04-24T10:34:46;10.00;;;2.67;;
71423;SDS011;59240;51.370;-0.486;2023-04-24T10:37:12;8.68;;;3.17;;
71423;SDS011;59240;51.370;-0.486;2023-04-24T10:39:40;9.00;;;3.00;;
71423;SDS011;59240;51.370;-0.486;2023-04-24T10:42:16;8.63;;;3.20;;
71423;SDS011;59240;51.370;-0.486;2023-04-24T10:44:43;8.90;;;2.90;;
71423;SDS011;59240;51.370;-0.486;2023-04-24T10:47:13;8.17;;;3.30;;
71423;SDS011;59240;51.370;-0.486;2023-04-24T10:49:43;9.38;;;3.20;;
71423;SDS011;59240;51.370;-0.486;2023-04-24T10:52:12;8.50;;;2.97;;
71423;SDS011;59240;51.370;-0.486;2023-04-24T10:54:46;9.93;;;3.50;;
71423;SDS011;59240;51.370;-0.486;2023-04-24T10:59:51;7.87;;;3.33;;
71423;SDS011;59240;51.370;-0.486;2023-04-24T11:02:36;10.95;;;3.03;;
71423;SDS011;59240;51.370;-0.486;2023-04-24T11:05:05;7.65;;;2.70;;
71423;SDS011;59240;51.370;-0.486;2023-04-24T11:10:46;11.23;;;3.13;;
71423;SDS011;59240;51.370;-0.486;2023-04-24T11:13:20;9.43;;;2.53;;
71423;SDS011;59240;51.370;-0.486;2023-04-24T11:18:50;8.32;;;2.72;;
71423;SDS011;59240;51.370;-0.486;2023-04-24T11:21:21;8.85;;;3.10;;
71423;SDS011;59240;51.370;-0.486;2023-04-24T11:23:49;8.13;;;2.70;;
71423;SDS011;59240;51.370;-0.486;2023-04-24T11:26:17;9.97;;;2.77;;
71423;SDS011;59240;51.370;-0.486;2023-04-24T11:28:47;7.15;;;2.78;;
71423;SDS011;59240;51.370;-0.486;2023-04-24T11:34:07;8.52;;;2.80;;
71423;SDS011;59240;51.370;-0.486;2023-04-24T11:36:35;8.40;;;2.92;;
71423;SDS011;59240;51.370;-0.486;2023-04-24T11:39:02;9.83;;;3.00;;
71423;SDS011;59240;51.370;-0.486;2023-04-24T11:41:29;10.60;;;3.20;;
71423;SDS011;59240;51.370;-0.486;2023-04-24T11:43:57;8.98;;;2.95;;
71423;SDS011;59240;51.370;-0.486;2023-04-24T11:46:27;8.43;;;3.00;;
71423;SDS011;59240;51.370;-0.486;2023-04-24T11:48:55;7.18;;;2.50;;
71423;SDS011;59240;51.370;-0.486;2023-04-24T11:51:23;11.53;;;3.47;;
71423;SDS011;59240;51.370;-0.486;2023-04-24T11:53:58;9.88;;;3.08;;
71423;SDS011;59240;51.370;-0.486;2023-04-24T11:56:29;10.45;;;3.15;;
71423;SDS011;59240;51.370;-0.486;2023-04-24T11:58:56;9.55;;;3.10;;
71423;SDS011;59240;51.370;-0.486;2023-04-24T12:01:23;10.02;;;3.03;;
71423;SDS011;59240;51.370;-0.486;2023-04-24T12:03:50;10.57;;;3.00;;
71423;SDS011;59240;51.370;-0.486;2023-04-24T12:06:25;7.38;;;3.05;;
71423;SDS011;59240;51.370;-0.486;2023-04-24T12:08:52;9.05;;;3.05;;
71423;SDS011;59240;51.370;-0.486;2023-04-24T12:11:29;9.95;;;3.42;;
71423;SDS011;59240;51.370;-0.486;2023-04-24T12:13:57;10.70;;;3.40;;
71423;SDS011;59240;51.370;-0.486;2023-04-24T12:16:23;8.03;;;2.93;;
71423;SDS011;59240;51.370;-0.486;2023-04-24T12:18:52;12.07;;;3.40;;
71423;SDS011;59240;51.370;-0.486;2023-04-24T12:21:22;10.00;;;3.80;;
71423;SDS011;59240;51.370;-0.486;2023-04-24T12:23:50;8.38;;;2.90;;
71423;SDS011;59240;51.370;-0.486;2023-04-24T12:26:17;11.18;;;3.63;;
71423;SDS011;59240;51.370;-0.486;2023-04-24T12:28:49;8.80;;;3.63;;
71423;SDS011;59240;51.370;-0.486;2023-04-24T12:31:16;9.50;;;3.13;;
71423;SDS011;59240;51.370;-0.486;2023-04-24T12:33:43;10.38;;;3.55;;
71423;SDS011;59240;51.370;-0.486;2023-04-24T12:36:10;8.82;;;3.28;;
71423;SDS011;59240;51.370;-0.486;2023-04-24T12:38:42;11.02;;;3.63;;
71423;SDS011;59240;51.370;-0.486;2023-04-24T12:41:13;9.90;;;3.70;;
71423;SDS011;59240;51.370;-0.486;2023-04-24T12:43:53;9.13;;;3.20;;
71423;SDS011;59240;51.370;-0.486;2023-04-24T12:46:24;9.43;;;3.47;;
71423;SDS011;59240;51.370;-0.486;2023-04-24T12:48:51;8.50;;;3.38;;
71423;SDS011;59240;51.370;-0.486;2023-04-24T12:51:18;11.32;;;3.80;;
71423;SDS011;59240;51.370;-0.486;2023-04-24T12:53:45;9.43;;;3.30;;
71423;SDS011;59240;51.370;-0.486;2023-04-24T12:56:11;12.10;;;3.30;;
71423;SDS011;59240;51.370;-0.486;2023-04-24T12:58:38;10.60;;;3.67;;
71423;SDS011;59240;51.370;-0.486;2023-04-24T13:01:04;14.32;;;3.08;;
71423;SDS011;59240;51.370;-0.486;2023-04-24T13:03:34;11.00;;;3.28;;
71423;SDS011;59240;51.370;-0.486;2023-04-24T13:06:02;10.50;;;3.40;;
71423;SDS011;59240;51.370;-0.486;2023-04-24T13:08:28;10.23;;;3.38;;
71423;SDS011;59240;51.370;-0.486;2023-04-24T13:10:55;8.07;;;3.45;;
71423;SDS011;59240;51.370;-0.486;2023-04-24T13:15:57;9.85;;;3.38;;
71423;SDS011;59240;51.370;-0.486;2023-04-24T13:18:24;9.40;;;3.10;;
71423;SDS011;59240;51.370;-0.486;2023-04-24T13:20:50;11.48;;;3.63;;
71423;SDS011;59240;51.370;-0.486;2023-04-24T13:23:17;10.20;;;3.70;;
71423;SDS011;59240;51.370;-0.486;2023-04-24T13:25:43;10.27;;;3.40;;
71423;SDS011;59240;51.370;-0.486;2023-04-24T13:28:10;14.98;;;3.70;;
71423;SDS011;59240;51.370;-0.486;2023-04-24T13:30:37;9.97;;;3.30;;
71423;SDS011;59240;51.370;-0.486;2023-04-24T13:33:07;11.35;;;3.55;;
71423;SDS011;59240;51.370;-0.486;2023-04-24T13:35:33;9.00;;;3.45;;
71423;SDS011;59240;51.370;-0.486;2023-04-24T13:38:00;11.05;;;4.30;;
71423;SDS011;59240;51.370;-0.486;2023-04-24T13:40:27;10.82;;;3.90;;
71423;SDS011;59240;51.370;-0.486;2023-04-24T13:42:54;9.17;;;3.30;;
71423;SDS011;59240;51.370;-0.486;2023-04-24T13:45:20;11.93;;;3.83;;
71423;SDS011;59240;51.370;-0.486;2023-04-24T13:47:50;8.65;;;3.38;;
71423;SDS011;59240;51.370;-0.486;2023-04-24T13:50:18;9.05;;;3.42;;
71423;SDS011;59240;51.370;-0.486;2023-04-24T13:52:44;9.48;;;3.20;;
71423;SDS011;59240;51.370;-0.486;2023-04-24T13:55:11;13.23;;;3.87;;
71423;SDS011;59240;51.370;-0.486;2023-04-24T13:57:41;11.55;;;3.17;;
71423;SDS011;59240;51.370;-0.486;2023-04-24T14:00:12;8.10;;;3.42;;
71423;SDS011;59240;51.370;-0.486;2023-04-24T14:02:42;10.30;;;3.85;;
71423;SDS011;59240;51.370;-0.486;2023-04-24T14:05:17;8.93;;;3.00;;
71423;SDS011;59240;51.370;-0.486;2023-04-24T14:07:47;9.37;;;3.40;;
71423;SDS011;59240;51.370;-0.486;2023-04-24T14:10:14;11.30;;;3.10;;
71423;SDS011;59240;51.370;-0.486;2023-04-24T14:12:41;9.10;;;3.28;;
71423;SDS011;59240;51.370;-0.486;2023-04-24T14:15:08;13.90;;;4.25;;
71423;SDS011;59240;51.370;-0.486;2023-04-24T14:17:36;8.43;;;3.30;;
71423;SDS011;59240;51.370;-0.486;2023-04-24T14:20:07;10.33;;;3.10;;
71423;SDS011;59240;51.370;-0.486;2023-04-24T14:22:38;7.25;;;2.33;;
71423;SDS011;59240;51.370;-0.486;2023-04-24T14:25:38;5.65;;;1.40;;
71423;SDS011;59240;51.370;-0.486;2023-04-24T14:28:05;6.75;;;1.65;;
71423;SDS011;59240;51.370;-0.486;2023-04-24T14:30:36;6.25;;;1.65;;
71423;SDS011;59240;51.370;-0.486;2023-04-24T14:33:26;5.23;;;1.70;;
71423;SDS011;59240;51.370;-0.486;2023-04-24T14:35:57;5.85;;;1.65;;
71423;SDS011;59240;51.370;-0.486;2023-04-24T17:41:53;6.07;;;1.48;;
71423;SDS011;59240;51.370;-0.486;2023-04-24T17:44:20;5.32;;;1.42;;
71423;SDS011;59240;51.370;-0.486;2023-04-24T17:46:46;8.73;;;2.40;;
71423;SDS011;59240;51.370;-0.486;2023-04-24T17:49:15;4.95;;;1.55;;
71423;SDS011;59240;51.370;-0.486;2023-04-24T17:51:42;6.80;;;1.88;;